createdAt,value
2019-02-12T00:02:16.078Z,92.56
2019-02-12T00:04:44.666Z,93.08
2019-02-12T00:07:13.256Z,92.80
2019-02-12T00:09:41.841Z,92.37
2019-02-12T00:12:10.921Z,92.12
2019-02-12T00:14:39.510Z,91.42
2019-02-12T00:17:08.932Z,90.87
2019-02-12T00:19:37.520Z,90.95
2019-02-12T00:22:06.403Z,91.08
2019-02-12T00:24:35.030Z,91.09
2019-02-12T00:27:03.609Z,91.61
2019-02-12T00:29:32.283Z,92.01
2019-02-12T00:32:00.912Z,91.79
2019-02-12T00:34:29.506Z,91.44
2019-02-12T00:36:58.098Z,91.74
2019-02-12T00:39:26.679Z,92.11
2019-02-12T00:41:55.254Z,90.96
2019-02-12T00:44:23.842Z,90.76
2019-02-12T00:46:52.436Z,90.46
2019-02-12T00:49:21.022Z,90.03
2019-02-12T00:51:49.605Z,90.51
2019-02-12T00:54:18.184Z,90.25
2019-02-12T00:56:46.769Z,89.82
2019-02-12T00:59:15.362Z,89.95
2019-02-12T01:01:43.949Z,89.65
2019-02-12T01:04:12.648Z,89.86
2019-02-12T01:06:41.380Z,90.05
2019-02-12T01:09:11.092Z,89.71
2019-02-12T01:11:39.766Z,89.78
2019-02-12T01:14:08.714Z,89.74
2019-02-12T01:16:37.297Z,89.69
2019-02-12T01:19:05.870Z,89.43
2019-02-12T01:21:34.461Z,89.15
2019-02-12T01:24:03.039Z,89.88
2019-02-12T01:26:31.686Z,89.43
2019-02-12T01:29:00.271Z,88.70
2019-02-12T01:31:28.854Z,88.92
2019-02-12T01:33:57.486Z,89.48
2019-02-12T01:36:26.106Z,89.50
2019-02-12T01:38:57.397Z,89.99
2019-02-12T01:41:25.983Z,89.17
2019-02-12T01:43:54.565Z,89.80
2019-02-12T01:46:23.146Z,89.85
2019-02-12T01:48:51.738Z,90.66
2019-02-12T01:51:20.338Z,91.14
2019-02-12T01:53:48.921Z,91.14
2019-02-12T01:56:17.507Z,91.19
2019-02-12T01:58:46.092Z,91.94
2019-02-12T02:01:14.675Z,91.93
2019-02-12T02:03:43.263Z,91.13
2019-02-12T02:06:12.853Z,91.28
2019-02-12T02:08:41.478Z,91.10
2019-02-12T02:11:10.424Z,90.55
2019-02-12T02:13:39.013Z,91.23
2019-02-12T02:16:07.598Z,90.60
2019-02-12T02:18:36.194Z,90.87
2019-02-12T02:21:04.784Z,90.87
2019-02-12T02:23:33.370Z,91.28
2019-02-12T02:26:01.959Z,91.38
2019-02-12T02:28:30.552Z,91.65
2019-02-12T02:30:59.151Z,91.32
2019-02-12T02:33:27.734Z,91.61
2019-02-12T02:35:56.377Z,91.55
2019-02-12T02:38:25.121Z,91.63
2019-02-12T02:40:53.704Z,91.83
2019-02-12T02:43:22.309Z,91.85
2019-02-12T02:45:50.891Z,91.50
2019-02-12T02:48:19.489Z,91.80
2019-02-12T02:50:48.076Z,92.19
2019-02-12T02:53:16.669Z,91.79
2019-02-12T02:55:45.253Z,92.32
2019-02-12T02:58:13.831Z,92.34
2019-02-12T03:00:43.599Z,92.56
2019-02-12T03:03:12.187Z,92.33
2019-02-12T03:05:40.808Z,92.50
2019-02-12T03:08:09.663Z,92.31
2019-02-12T03:10:38.253Z,92.48
2019-02-12T03:13:07.710Z,92.62
2019-02-12T03:15:36.293Z,92.93
2019-02-12T03:18:04.884Z,91.97
2019-02-12T03:20:33.478Z,92.04
2019-02-12T03:23:02.085Z,92.31
2019-02-12T03:25:30.679Z,91.16
2019-02-12T03:27:59.269Z,90.91
2019-02-12T03:30:27.858Z,90.77
2019-02-12T03:32:56.442Z,90.96
2019-02-12T03:35:25.037Z,91.92
2019-02-12T03:37:53.632Z,91.67
2019-02-12T03:40:22.241Z,91.16
2019-02-12T03:42:50.909Z,91.30
2019-02-12T03:45:19.553Z,92.40
2019-02-12T03:47:48.138Z,92.15
2019-02-12T03:50:16.730Z,91.39
2019-02-12T03:52:45.326Z,91.25
2019-02-12T03:55:14.221Z,91.23
2019-02-12T03:57:42.866Z,91.18
2019-02-12T04:00:14.428Z,91.55
2019-02-12T04:03:03.821Z,91.74
2019-02-12T04:05:32.522Z,91.54
2019-02-12T04:08:01.208Z,91.27
2019-02-12T04:10:29.863Z,91.14
2019-02-12T04:12:58.469Z,90.96
2019-02-12T04:15:27.099Z,90.86
2019-02-12T04:17:55.685Z,90.89
2019-02-12T04:20:24.288Z,91.14
2019-02-12T04:22:52.872Z,91.05
2019-02-12T04:25:21.496Z,91.23
2019-02-12T04:27:50.081Z,91.25
2019-02-12T04:30:18.670Z,91.09
2019-02-12T04:32:47.257Z,91.30
2019-02-12T04:35:15.850Z,91.14
2019-02-12T04:37:44.436Z,91.25
2019-02-12T04:40:13.020Z,91.32
2019-02-12T04:42:41.609Z,91.29
2019-02-12T04:45:11.457Z,91.15
2019-02-12T04:47:40.049Z,91.47
2019-02-12T04:50:15.620Z,91.18
2019-02-12T04:52:44.215Z,91.26
2019-02-12T04:55:12.913Z,90.74
2019-02-12T04:57:41.562Z,91.60
2019-02-12T05:00:16.071Z,91.99
2019-02-12T05:02:44.712Z,91.89
2019-02-12T05:05:13.299Z,91.83
2019-02-12T05:07:41.884Z,91.93
2019-02-12T05:10:34.402Z,92.07
2019-02-12T05:13:03.010Z,92.05
2019-02-12T05:15:31.581Z,92.16
2019-02-12T05:18:00.217Z,92.29
2019-02-12T05:20:28.804Z,92.30
2019-02-12T05:22:57.405Z,92.46
2019-02-12T05:25:26.018Z,92.24
2019-02-12T05:27:54.619Z,92.44
2019-02-12T05:34:04.396Z,91.90
2019-02-12T05:36:32.980Z,92.12
2019-02-12T05:39:01.593Z,92.36
2019-02-12T05:41:30.166Z,91.97
2019-02-12T05:43:58.751Z,91.72
2019-02-12T05:46:27.393Z,91.94
2019-02-12T05:48:56.024Z,92.13
2019-02-12T05:51:24.614Z,92.13
2019-02-12T05:53:53.336Z,91.83
2019-02-12T05:56:21.933Z,92.00
2019-02-12T05:58:50.527Z,92.06
2019-02-12T06:01:19.707Z,92.25
2019-02-12T06:03:48.296Z,91.96
2019-02-12T06:06:17.282Z,92.07
2019-02-12T06:08:46.058Z,91.92
2019-02-12T06:11:14.637Z,91.64
2019-02-12T06:13:49.267Z,90.80
2019-02-12T06:16:17.880Z,90.67
2019-02-12T06:18:46.453Z,91.17
2019-02-12T06:21:15.080Z,91.11
2019-02-12T06:23:43.660Z,90.73
2019-02-12T06:26:12.244Z,90.53
2019-02-12T06:28:40.837Z,90.67
2019-02-12T06:31:10.305Z,90.42
2019-02-12T06:33:38.888Z,90.41
2019-02-12T06:36:07.775Z,90.50
2019-02-12T06:38:36.368Z,91.17
2019-02-12T06:41:04.963Z,90.85
2019-02-12T06:43:33.556Z,90.59
2019-02-12T06:46:02.143Z,90.71
2019-02-12T06:48:30.730Z,90.00
2019-02-12T06:50:59.314Z,89.85
2019-02-12T06:53:27.939Z,90.15
2019-02-12T06:55:56.609Z,90.02
2019-02-12T06:58:25.232Z,90.07
2019-02-12T07:00:53.822Z,89.56
2019-02-12T07:03:23.210Z,89.85
2019-02-12T07:06:03.563Z,89.25
2019-02-12T07:08:46.913Z,88.83
2019-02-12T07:11:50.727Z,88.75
2019-02-12T07:14:31.635Z,89.25
2019-02-12T07:17:32.040Z,89.01
2019-02-12T07:20:18.576Z,89.02
2019-02-12T07:22:59.395Z,88.85
2019-02-12T07:25:40.280Z,89.21
2019-02-12T07:28:29.427Z,88.83
2019-02-12T07:31:19.227Z,88.84
2019-02-12T07:34:08.896Z,89.04
2019-02-12T07:37:03.385Z,88.98
2019-02-12T07:39:53.401Z,89.24
2019-02-12T07:42:27.956Z,89.57
2019-02-12T07:45:34.760Z,88.44
2019-02-12T07:48:25.608Z,88.21
2019-02-12T07:51:03.109Z,87.60
2019-02-12T07:53:40.475Z,87.93
2019-02-12T07:56:18.147Z,87.24
2019-02-12T07:58:55.868Z,88.40
2019-02-12T08:01:50.477Z,89.53
2019-02-12T08:04:22.189Z,89.42
2019-02-12T08:06:59.938Z,88.66
2019-02-12T08:09:48.083Z,87.76
2019-02-12T08:12:25.398Z,87.87
2019-02-12T08:15:12.283Z,87.46
2019-02-12T08:18:16.094Z,86.83
2019-02-12T08:21:10.026Z,87.22
2019-02-12T08:24:00.135Z,87.17
2019-02-12T08:26:54.497Z,87.25
2019-02-12T08:29:29.126Z,87.22
2019-02-12T08:32:18.420Z,87.49
2019-02-12T08:34:52.887Z,88.05
2019-02-12T08:37:31.989Z,86.62
2019-02-12T08:40:10.007Z,86.86
2019-02-12T08:42:56.865Z,87.03
2019-02-12T08:45:37.575Z,86.71
2019-02-12T08:48:27.133Z,86.83
2019-02-12T08:51:16.446Z,86.95
2019-02-12T08:54:07.884Z,87.50
2019-02-12T08:56:48.411Z,87.18
2019-02-12T08:59:20.109Z,86.81
2019-02-12T09:01:57.520Z,86.52
2019-02-12T09:04:38.207Z,87.18
2019-02-12T09:07:10.810Z,86.74
2019-02-12T09:10:15.666Z,86.24
2019-02-12T09:12:56.368Z,86.28
2019-02-12T09:16:01.600Z,86.36
2019-02-12T09:18:39.137Z,86.49
2019-02-12T09:21:45.427Z,86.36
2019-02-12T09:24:34.521Z,86.39
2019-02-12T09:27:21.152Z,86.44
2019-02-12T09:29:52.858Z,85.49
2019-02-12T09:32:44.192Z,85.64
2019-02-12T09:35:22.555Z,84.89
2019-02-12T09:38:15.444Z,85.55
2019-02-12T09:40:56.165Z,85.60
2019-02-12T09:43:47.122Z,84.32
2019-02-12T09:46:53.736Z,84.86
2019-02-12T09:49:46.485Z,83.85
2019-02-12T09:52:50.113Z,83.50
2019-02-12T09:55:30.910Z,85.86
2019-02-12T09:58:11.496Z,83.41
2019-02-12T10:00:43.210Z,84.45
2019-02-12T10:03:30.333Z,83.73
2019-02-12T10:06:02.092Z,82.48
2019-02-12T10:08:50.520Z,83.76
2019-02-12T10:11:42.853Z,82.84
2019-02-12T10:14:39.996Z,83.56
2019-02-12T10:17:26.937Z,82.69
2019-02-12T10:19:58.633Z,83.27
2019-02-12T10:22:38.936Z,83.11
2019-02-12T10:25:17.324Z,83.83
2019-02-12T10:27:55.010Z,83.05
2019-02-12T10:30:29.469Z,83.65
2019-02-12T10:32:58.093Z,83.37
2019-02-12T10:35:26.675Z,83.27
2019-02-12T10:37:55.259Z,83.13
2019-02-12T10:40:23.840Z,80.60
2019-02-12T10:42:52.414Z,81.31
2019-02-12T10:45:20.992Z,80.51
2019-02-12T10:47:49.874Z,80.21
2019-02-12T10:50:18.467Z,79.19
2019-02-12T10:52:47.049Z,77.54
2019-02-12T10:55:15.636Z,78.15
2019-02-12T10:57:44.220Z,78.79
2019-02-12T11:00:14.432Z,76.79
2019-02-12T11:02:43.012Z,76.79
2019-02-12T11:05:12.792Z,76.90
2019-02-12T11:07:41.377Z,78.85
2019-02-12T11:10:10.465Z,77.94
2019-02-12T11:12:39.221Z,76.02
2019-02-12T11:15:10.083Z,75.00
2019-02-12T11:17:38.663Z,75.43
2019-02-12T11:20:09.352Z,74.86
2019-02-12T11:22:38.107Z,75.33
2019-02-12T11:25:08.530Z,76.01
2019-02-12T11:27:37.189Z,76.17
2019-02-12T11:30:08.888Z,75.37
2019-02-12T11:32:37.463Z,76.25
2019-02-12T11:35:13.739Z,75.50
2019-02-12T11:37:42.327Z,76.23
2019-02-12T11:40:13.495Z,76.20
2019-02-12T11:42:42.183Z,76.31
2019-02-12T11:45:15.234Z,74.11
2019-02-12T11:47:43.812Z,75.54
2019-02-12T11:50:13.269Z,76.12
2019-02-12T11:52:41.848Z,73.89
2019-02-12T11:55:12.781Z,76.70
2019-02-12T11:57:41.363Z,74.71
2019-02-12T12:00:16.088Z,75.54
2019-02-12T12:02:44.674Z,76.27
2019-02-12T12:05:13.260Z,74.77
2019-02-12T12:07:41.843Z,74.56
2019-02-12T12:10:11.967Z,74.24
2019-02-12T12:12:40.565Z,72.76
2019-02-12T12:15:15.247Z,72.82
2019-02-12T12:17:43.863Z,71.98
2019-02-12T12:20:14.726Z,72.02
2019-02-12T12:22:43.303Z,72.72
2019-02-12T12:25:13.297Z,74.61
2019-02-12T12:27:41.884Z,73.69
2019-02-12T12:30:12.718Z,71.96
2019-02-12T12:32:41.307Z,71.91
2019-02-12T12:35:11.135Z,73.28
2019-02-12T12:37:39.715Z,72.81
2019-02-12T12:40:11.012Z,72.72
2019-02-12T12:42:39.591Z,73.33
2019-02-12T12:45:13.391Z,71.80
2019-02-12T12:47:42.059Z,72.73
2019-02-12T12:50:12.274Z,73.16
2019-02-12T12:52:40.860Z,74.89
2019-02-12T12:55:10.335Z,71.65
2019-02-12T12:57:41.970Z,72.59
2019-02-12T13:00:17.709Z,71.36
2019-02-12T13:02:46.296Z,70.67
2019-02-12T13:05:14.900Z,70.31
2019-02-12T13:07:43.478Z,67.96
2019-02-12T13:10:15.338Z,69.23
2019-02-12T13:12:43.958Z,71.10
2019-02-12T13:15:14.144Z,70.06
2019-02-12T13:17:42.726Z,67.78
2019-02-12T13:20:22.504Z,61.99
2019-02-12T13:22:51.128Z,60.62
2019-02-12T13:25:19.756Z,61.07
2019-02-12T13:27:48.343Z,60.54
2019-02-12T13:30:20.049Z,61.30
2019-02-12T13:32:48.630Z,61.08
2019-02-12T13:35:17.262Z,61.69
2019-02-12T13:37:45.845Z,63.29
2019-02-12T13:40:14.429Z,59.96
2019-02-12T13:42:43.018Z,59.83
2019-02-12T13:45:17.112Z,59.64
2019-02-12T13:47:45.688Z,57.66
2019-02-12T13:50:14.568Z,57.66
2019-02-12T13:52:43.148Z,58.74
2019-02-12T13:55:17.527Z,59.60
2019-02-12T13:57:42.821Z,57.57
2019-02-12T14:00:15.930Z,59.50
2019-02-12T14:02:44.518Z,55.84
2019-02-12T14:05:18.932Z,56.14
2019-02-12T14:07:47.571Z,57.10
2019-02-12T14:10:16.141Z,56.45
2019-02-12T14:12:44.725Z,55.85
2019-02-12T14:15:14.106Z,53.61
2019-02-12T14:17:42.723Z,54.54
2019-02-12T14:20:19.592Z,55.96
2019-02-12T14:22:48.184Z,56.48
2019-02-12T14:25:24.969Z,56.72
2019-02-12T14:27:47.399Z,55.53
2019-02-12T14:30:18.140Z,54.82
2019-02-12T14:32:46.922Z,54.78
2019-02-12T14:35:15.533Z,53.14
2019-02-12T14:37:44.139Z,52.72
2019-02-12T14:40:13.927Z,54.00
2019-02-12T14:42:42.512Z,55.22
2019-02-12T14:45:16.375Z,53.58
2019-02-12T14:47:44.955Z,53.99
2019-02-12T14:50:21.128Z,51.74
2019-02-12T14:52:49.711Z,51.74
2019-02-12T14:55:18.348Z,52.22
2019-02-12T14:57:46.926Z,54.42
2019-02-12T15:00:19.479Z,54.04
2019-02-12T15:02:48.060Z,53.33
2019-02-12T15:05:16.679Z,53.06
2019-02-12T15:07:45.249Z,52.52
2019-02-12T15:10:16.665Z,52.66
2019-02-12T15:12:45.245Z,52.86
2019-02-12T15:15:13.868Z,54.61
2019-02-12T15:17:42.453Z,52.84
2019-02-12T15:20:12.849Z,52.46
2019-02-12T15:22:41.480Z,51.68
2019-02-12T15:25:11.925Z,54.16
2019-02-12T15:27:40.551Z,53.20
2019-02-12T15:30:16.034Z,51.34
2019-02-12T15:32:44.613Z,51.50
2019-02-12T15:35:13.267Z,52.02
2019-02-12T15:37:41.847Z,52.49
2019-02-12T15:40:13.567Z,52.13
2019-02-12T15:42:42.148Z,51.85
2019-02-12T15:45:13.564Z,52.62
2019-02-12T15:47:42.147Z,53.61
2019-02-12T15:50:11.896Z,52.62
2019-02-12T15:52:40.528Z,51.61
2019-02-12T15:55:12.421Z,51.10
2019-02-12T15:57:43.142Z,51.95
2019-02-12T16:00:15.753Z,51.67
2019-02-12T16:02:45.196Z,50.50
2019-02-12T16:05:14.077Z,51.14
2019-02-12T16:07:44.658Z,50.97
2019-02-12T16:10:19.546Z,50.47
2019-02-12T16:12:48.836Z,52.17
2019-02-12T16:15:21.510Z,51.81
2019-02-12T16:17:49.194Z,53.89
2019-02-12T16:20:17.791Z,53.09
2019-02-12T16:22:46.365Z,52.07
2019-02-12T16:25:15.558Z,49.98
2019-02-12T16:27:44.286Z,51.64
2019-02-12T16:30:15.601Z,51.57
2019-02-12T16:32:44.231Z,49.46
2019-02-12T16:35:14.923Z,51.19
2019-02-12T16:37:43.503Z,51.67
2019-02-12T16:40:14.040Z,52.76
2019-02-12T16:42:42.623Z,51.65
2019-02-12T16:45:23.645Z,53.58
2019-02-12T16:47:52.230Z,54.88
2019-02-12T16:50:20.810Z,56.78
2019-02-12T16:52:49.388Z,56.30
2019-02-12T16:55:17.971Z,57.06
2019-02-12T16:57:46.587Z,55.32
2019-02-12T17:00:17.272Z,58.13
2019-02-12T17:02:46.718Z,59.14
2019-02-12T17:05:15.845Z,61.10
2019-02-12T17:07:45.423Z,58.47
2019-02-12T17:10:14.496Z,59.20
2019-02-12T17:12:43.080Z,58.94
2019-02-12T17:15:16.887Z,58.71
2019-02-12T17:17:45.472Z,60.45
2019-02-12T17:20:21.798Z,61.08
2019-02-12T17:22:50.379Z,60.66
2019-02-12T17:25:18.986Z,60.28
2019-02-12T17:27:48.130Z,60.29
2019-02-12T17:30:18.583Z,60.85
2019-02-12T17:32:47.168Z,61.49
2019-02-12T17:35:15.850Z,61.79
2019-02-12T17:37:44.478Z,61.42
2019-02-12T17:40:15.721Z,61.91
2019-02-12T17:42:44.299Z,62.93
2019-02-12T17:45:17.425Z,62.46
2019-02-12T17:47:46.036Z,63.77
2019-02-12T17:50:15.371Z,63.80
2019-02-12T17:52:43.958Z,64.25
2019-02-12T17:55:13.024Z,63.79
2019-02-12T17:57:41.655Z,64.18
2019-02-12T18:00:19.605Z,64.11
2019-02-12T18:02:48.230Z,63.99
2019-02-12T18:05:16.807Z,65.27
2019-02-12T18:07:45.395Z,65.19
2019-02-12T18:10:13.973Z,65.95
2019-02-12T18:12:42.558Z,65.89
2019-02-12T18:15:16.099Z,65.41
2019-02-12T18:17:44.706Z,65.75
2019-02-12T18:20:17.446Z,65.69
2019-02-12T18:22:46.031Z,65.96
2019-02-12T18:25:14.614Z,66.34
2019-02-12T18:27:43.199Z,66.06
2019-02-12T18:30:15.272Z,65.98
2019-02-12T18:32:43.861Z,66.25
2019-02-12T18:35:12.979Z,66.54
2019-02-12T18:37:41.564Z,67.86
2019-02-12T18:40:16.067Z,67.09
2019-02-12T18:42:44.844Z,66.80
2019-02-12T18:45:16.134Z,66.15
2019-02-12T18:47:44.723Z,67.88
2019-02-12T18:50:13.324Z,66.67
2019-02-12T18:52:41.886Z,67.71
2019-02-12T18:55:13.519Z,67.09
2019-02-12T18:57:42.137Z,66.82
2019-02-12T19:00:17.065Z,68.02
2019-02-12T19:02:45.640Z,67.58
2019-02-12T19:05:14.335Z,67.58
2019-02-12T19:07:43.106Z,68.67
2019-02-12T19:10:14.836Z,68.34
2019-02-12T19:12:43.495Z,69.06
2019-02-12T19:15:20.498Z,69.11
2019-02-12T19:17:58.382Z,69.02
2019-02-12T19:20:26.966Z,69.07
2019-02-12T19:22:55.553Z,69.37
2019-02-12T19:25:24.126Z,69.67
2019-02-12T19:27:52.715Z,69.70
2019-02-12T19:30:21.298Z,73.85
2019-02-12T19:32:49.888Z,74.49
2019-02-12T19:35:18.469Z,76.43
2019-02-12T19:37:47.051Z,76.13
2019-02-12T19:40:15.701Z,74.82
2019-02-12T19:42:44.283Z,74.55
2019-02-12T19:45:14.709Z,74.18
2019-02-12T19:47:43.338Z,73.83
2019-02-12T19:50:12.957Z,73.22
2019-02-12T19:52:41.541Z,74.32
2019-02-12T19:55:10.840Z,74.09
2019-02-12T19:57:39.425Z,74.58
2019-02-12T20:00:20.511Z,74.42
2019-02-12T20:02:50.197Z,73.62
2019-02-12T20:05:18.985Z,73.29
2019-02-12T20:07:47.572Z,72.63
2019-02-12T20:10:16.353Z,72.32
2019-02-12T20:12:45.010Z,72.03
2019-02-12T20:15:18.277Z,72.25
2019-02-12T20:17:46.859Z,72.72
2019-02-12T20:20:15.436Z,73.13
2019-02-12T20:22:44.017Z,73.81
2019-02-12T20:25:13.100Z,74.42
2019-02-12T20:27:41.681Z,73.88
2019-02-12T20:30:15.316Z,74.77
2019-02-12T20:32:43.903Z,74.52
2019-02-12T20:35:14.186Z,73.71
2019-02-12T20:37:42.764Z,73.42
2019-02-12T20:40:13.436Z,72.81
2019-02-12T20:42:42.112Z,73.87
2019-02-12T20:45:16.128Z,72.78
2019-02-12T20:47:44.709Z,73.47
2019-02-12T20:50:21.366Z,72.71
2019-02-12T20:52:49.985Z,73.34
2019-02-12T20:55:18.627Z,72.63
2019-02-12T20:57:47.197Z,72.75
2019-02-12T21:00:23.027Z,73.29
2019-02-12T21:02:51.610Z,72.71
2019-02-12T21:05:20.215Z,73.41
2019-02-12T21:07:49.172Z,73.22
2019-02-12T21:10:21.983Z,73.42
2019-02-12T21:12:50.565Z,73.42
2019-02-12T21:15:29.906Z,72.71
2019-02-12T21:17:58.540Z,73.21
2019-02-12T21:20:27.120Z,72.77
2019-02-12T21:22:56.300Z,73.39
2019-02-12T21:25:24.877Z,72.97
2019-02-12T21:27:53.471Z,73.26
2019-02-12T21:30:23.441Z,72.94
2019-02-12T21:32:52.022Z,73.02
2019-02-12T21:35:20.636Z,73.91
2019-02-12T21:37:49.228Z,74.31
2019-02-12T21:40:20.658Z,73.39
2019-02-12T21:42:49.347Z,73.58
2019-02-12T21:45:18.016Z,74.79
2019-02-12T21:47:46.628Z,73.85
2019-02-12T21:50:15.319Z,73.56
2019-02-12T21:52:43.879Z,73.50
2019-02-12T21:55:14.456Z,73.70
2019-02-12T21:57:43.082Z,74.34
2019-02-12T22:00:20.452Z,74.17
2019-02-12T22:02:49.124Z,75.46
2019-02-12T22:05:18.010Z,75.61
2019-02-12T22:07:46.641Z,76.24
2019-02-12T22:10:20.526Z,75.97
2019-02-12T22:12:49.177Z,76.10
2019-02-12T22:15:17.766Z,76.66
2019-02-12T22:17:46.356Z,77.30
2019-02-12T22:20:19.788Z,77.42
2019-02-12T22:22:48.371Z,77.63
2019-02-12T22:25:16.996Z,78.49
2019-02-12T22:27:45.597Z,78.01
2019-02-12T22:30:16.835Z,78.38
2019-02-12T22:32:45.423Z,77.94
2019-02-12T22:35:15.015Z,77.80
2019-02-12T22:37:43.609Z,77.88
2019-02-12T22:40:13.952Z,77.64
2019-02-12T22:42:42.554Z,77.64
2019-02-12T22:45:19.293Z,76.90
2019-02-12T22:47:47.881Z,77.27
2019-02-12T22:50:16.465Z,77.29
2019-02-12T22:52:45.060Z,77.14
2019-02-12T22:55:13.671Z,77.22
2019-02-12T22:57:48.818Z,77.05
2019-02-12T23:00:22.053Z,77.29
2019-02-12T23:02:50.632Z,77.64
2019-02-12T23:05:19.222Z,78.94
2019-02-12T23:07:47.851Z,79.33
2019-02-12T23:10:16.470Z,79.14
2019-02-12T23:12:45.048Z,79.04
2019-02-12T23:15:13.681Z,79.54
2019-02-12T23:17:42.266Z,78.30
2019-02-12T23:20:11.950Z,78.17
2019-02-12T23:22:40.529Z,77.82
2019-02-12T23:25:10.098Z,78.01
2019-02-12T23:27:38.684Z,77.90
2019-02-12T23:30:09.566Z,78.04
2019-02-12T23:32:38.155Z,77.87
2019-02-12T23:35:07.042Z,78.25
2019-02-12T23:37:35.619Z,77.80
2019-02-12T23:40:04.804Z,78.47
2019-02-12T23:42:33.407Z,78.40
2019-02-12T23:45:01.990Z,78.24
2019-02-12T23:47:30.572Z,78.50
2019-02-12T23:49:59.155Z,78.66
2019-02-12T23:52:27.748Z,78.62
2019-02-12T23:54:56.322Z,78.14
2019-02-12T23:57:24.901Z,78.59
2019-02-12T23:59:53.519Z,79.38
